createdAt,value
2023-05-01T00:00:37.235Z,101159.84
2023-05-01T00:03:23.232Z,101161.69
2023-05-01T00:06:08.559Z,101164.25
2023-05-01T00:08:53.928Z,101159.03
2023-05-01T00:11:39.269Z,101150.41
2023-05-01T00:14:24.754Z,101132.28
2023-05-01T00:17:10.097Z,101131.03
2023-05-01T00:19:55.232Z,101125.13
2023-05-01T00:22:40.619Z,101119.13
2023-05-01T00:25:25.533Z,101100.94
2023-05-01T00:28:10.954Z,101100.56
2023-05-01T00:30:57.392Z,101098.91
2023-05-01T00:33:42.482Z,101100.59
2023-05-01T00:36:27.880Z,101093.88
2023-05-01T00:39:13.058Z,101091.47
2023-05-01T00:41:58.196Z,101084.41
2023-05-01T00:44:43.721Z,101073.41
2023-05-01T00:47:28.952Z,101060.84
2023-05-01T00:50:14.691Z,101048.63
2023-05-01T00:53:00.183Z,101037.91
2023-05-01T00:55:45.974Z,101036.47
2023-05-01T00:58:31.312Z,101038.88
2023-05-01T01:01:16.441Z,101025.97
2023-05-01T01:04:02.252Z,101021.34
2023-05-01T01:06:55.887Z,101002.94
2023-05-01T01:09:53.154Z,100965.56
2023-05-01T01:13:14.100Z,100959.59
2023-05-01T01:16:06.320Z,100931.69
2023-05-01T01:19:01.754Z,100898.81
2023-05-01T01:21:51.923Z,100859.75
2023-05-01T01:24:55.205Z,100845.94
2023-05-01T01:28:25.364Z,100843.75
2023-05-01T01:31:34.876Z,100844.63
2023-05-01T01:34:26.498Z,100856.03
2023-05-01T01:37:19.506Z,100842.53
2023-05-01T01:40:12.900Z,100831.38
2023-05-01T01:43:10.698Z,100831.63
2023-05-01T01:46:03.757Z,100832.13
2023-05-01T01:48:51.204Z,100825.81
2023-05-01T01:51:39.820Z,100822.63
2023-05-01T01:54:31.356Z,100819.19
2023-05-01T01:57:20.747Z,100818.56
2023-05-01T02:00:09.290Z,100813.41
2023-05-01T02:02:56.609Z,100820.13
2023-05-01T02:05:43.502Z,100823.66
2023-05-01T02:08:31.587Z,100808.09
2023-05-01T02:11:20.438Z,100819.34
2023-05-01T02:14:07.381Z,100808.75
2023-05-01T02:16:52.670Z,100805.88
2023-05-01T02:19:38.903Z,100819.97
2023-05-01T02:22:26.035Z,100825.91
2023-05-01T02:25:13.525Z,100812.41
2023-05-01T02:28:06.660Z,100803.56
2023-05-01T02:30:51.825Z,100800.13
2023-05-01T02:33:37.112Z,100803.50
2023-05-01T02:36:22.553Z,100800.19
2023-05-01T02:39:08.205Z,100789.88
2023-05-01T02:41:54.804Z,100789.63
2023-05-01T02:44:44.772Z,100788.25
2023-05-01T02:47:32.320Z,100773.94
2023-05-01T02:50:18.028Z,100781.53
2023-05-01T02:53:03.542Z,100768.00
2023-05-01T02:55:50.043Z,100765.34
2023-05-01T02:58:35.702Z,100768.03
2023-05-01T03:01:21.359Z,100768.88
2023-05-01T03:04:06.897Z,100767.09
2023-05-01T03:06:52.264Z,100772.00
2023-05-01T03:09:37.496Z,100760.28
2023-05-01T03:12:22.921Z,100757.66
2023-05-01T03:15:09.009Z,100763.56
2023-05-01T03:17:54.249Z,100766.06
2023-05-01T03:20:39.514Z,100761.50
2023-05-01T03:23:25.498Z,100752.97
2023-05-01T03:26:10.641Z,100741.97
2023-05-01T03:28:56.110Z,100754.28
2023-05-01T03:31:41.455Z,100751.22
2023-05-01T03:34:26.779Z,100744.25
2023-05-01T03:37:12.047Z,100733.97
2023-05-01T03:39:57.142Z,100726.41
2023-05-01T03:42:42.336Z,100718.22
2023-05-01T03:45:27.680Z,100722.16
2023-05-01T03:48:12.595Z,100723.03
2023-05-01T03:50:57.926Z,100725.53
2023-05-01T03:53:43.425Z,100714.25
2023-05-01T03:56:28.635Z,100719.94
2023-05-01T03:59:14.175Z,100714.13
2023-05-01T04:01:59.422Z,100719.47
2023-05-01T04:04:44.594Z,100715.09
2023-05-01T04:07:29.505Z,100714.63
2023-05-01T04:10:14.880Z,100709.31
2023-05-01T04:13:00.337Z,100709.94
2023-05-01T04:15:46.415Z,100714.44
2023-05-01T04:18:31.690Z,100708.19
2023-05-01T04:21:17.312Z,100712.66
2023-05-01T04:24:02.555Z,100709.16
2023-05-01T04:26:47.708Z,100704.88
2023-05-01T04:29:33.097Z,100706.50
2023-05-01T04:32:18.020Z,100708.97
2023-05-01T04:35:04.297Z,100698.78
2023-05-01T04:37:49.529Z,100698.59
2023-05-01T04:40:34.958Z,100693.69
2023-05-01T04:43:20.273Z,100689.72
2023-05-01T04:46:06.084Z,100690.63
2023-05-01T04:48:51.360Z,100673.66
2023-05-01T04:51:36.552Z,100680.63
2023-05-01T04:54:22.527Z,100673.09
2023-05-01T04:57:07.540Z,100677.19
2023-05-01T04:59:53.097Z,100686.09
2023-05-01T05:02:38.631Z,100689.03
2023-05-01T05:05:23.735Z,100674.47
2023-05-01T05:08:09.160Z,100669.22
2023-05-01T05:10:58.506Z,100678.72
2023-05-01T05:13:44.057Z,100672.06
2023-05-01T05:16:29.463Z,100665.41
2023-05-01T05:19:14.389Z,100662.72
2023-05-01T05:22:02.299Z,100661.03
2023-05-01T05:24:47.371Z,100665.88
2023-05-01T05:27:32.817Z,100661.56
2023-05-01T05:30:18.282Z,100647.00
2023-05-01T05:33:03.759Z,100656.81
2023-05-01T05:35:48.977Z,100655.63
2023-05-01T05:38:34.498Z,100667.06
2023-05-01T05:41:20.221Z,100666.22
2023-05-01T05:44:05.538Z,100668.78
2023-05-01T05:46:50.924Z,100661.63
2023-05-01T05:49:36.625Z,100653.19
2023-05-01T05:52:21.985Z,100660.22
2023-05-01T05:55:07.756Z,100636.22
2023-05-01T05:57:53.124Z,100651.09
2023-05-01T06:00:38.166Z,100654.59
2023-05-01T06:03:23.733Z,100647.00
2023-05-01T06:06:09.592Z,100659.25
2023-05-01T06:08:54.903Z,100658.75
2023-05-01T06:11:39.917Z,100652.06
2023-05-01T06:14:25.165Z,100653.13
2023-05-01T06:17:10.884Z,100637.53
2023-05-01T06:19:56.342Z,100641.78
2023-05-01T06:22:41.875Z,100637.63
2023-05-01T06:25:27.414Z,100639.50
2023-05-01T06:28:12.534Z,100619.09
2023-05-01T06:30:58.058Z,100627.81
2023-05-01T06:33:43.432Z,100650.44
2023-05-01T06:36:28.821Z,100654.75
2023-05-01T06:39:13.769Z,100635.28
2023-05-01T06:41:59.254Z,100621.59
2023-05-01T06:44:44.741Z,100633.09
2023-05-01T06:47:30.037Z,100620.97
2023-05-01T06:50:15.477Z,100611.91
2023-05-01T06:53:00.588Z,100623.41
2023-05-01T06:55:45.564Z,100601.88
2023-05-01T06:58:31.032Z,100600.22
2023-05-01T07:01:16.693Z,100603.72
2023-05-01T07:04:01.882Z,100606.69
2023-05-01T07:06:47.348Z,100601.69
2023-05-01T07:09:32.575Z,100587.91
2023-05-01T07:12:18.065Z,100586.06
2023-05-01T07:15:03.785Z,100579.72
2023-05-01T07:17:53.397Z,100592.78
2023-05-01T07:20:38.465Z,100597.00
2023-05-01T07:23:23.882Z,100583.25
2023-05-01T07:26:09.080Z,100616.38
2023-05-01T07:28:54.281Z,100604.38
2023-05-01T07:31:39.617Z,100591.41
2023-05-01T07:34:24.901Z,100614.13
2023-05-01T07:37:10.281Z,100593.59
2023-05-01T07:39:56.733Z,100592.94
2023-05-01T07:42:42.030Z,100578.25
2023-05-01T07:45:27.671Z,100567.84
2023-05-01T07:48:13.008Z,100558.28
2023-05-01T07:51:02.720Z,100557.47
2023-05-01T07:53:47.972Z,100559.22
2023-05-01T07:56:33.374Z,100572.16
2023-05-01T07:59:18.662Z,100555.69
2023-05-01T08:02:03.692Z,100573.09
2023-05-01T08:04:48.953Z,100563.50
2023-05-01T08:07:34.353Z,100563.41
2023-05-01T08:10:19.839Z,100564.09
2023-05-01T08:13:05.117Z,100552.63
2023-05-01T08:15:50.381Z,100521.44
2023-05-01T08:18:35.717Z,100511.59
2023-05-01T08:21:21.192Z,100524.56
2023-05-01T08:24:09.225Z,100513.88
2023-05-01T08:26:54.300Z,100480.84
2023-05-01T08:29:39.232Z,100473.88
2023-05-01T08:32:24.623Z,100479.16
2023-05-01T08:35:10.292Z,100479.78
2023-05-01T08:37:55.290Z,100468.22
2023-05-01T08:40:43.812Z,100472.63
2023-05-01T08:43:31.296Z,100471.22
2023-05-01T08:46:36.805Z,100456.03
2023-05-01T08:49:23.986Z,100452.38
2023-05-01T08:52:11.791Z,100463.44
2023-05-01T08:54:57.406Z,100454.31
2023-05-01T08:57:46.813Z,100449.91
2023-05-01T09:00:32.842Z,100438.59
2023-05-01T09:03:19.124Z,100413.38
2023-05-01T09:06:05.209Z,100456.59
2023-05-01T09:08:50.497Z,100463.31
2023-05-01T09:11:36.313Z,100476.13
2023-05-01T09:14:21.927Z,100463.72
2023-05-01T09:17:07.169Z,100467.69
2023-05-01T09:19:53.457Z,100427.66
2023-05-01T09:22:38.853Z,100448.81
2023-05-01T09:25:23.972Z,100454.66
2023-05-01T09:28:08.919Z,100465.94
2023-05-01T09:30:53.962Z,100438.91
2023-05-01T09:33:51.655Z,100420.28
2023-05-01T09:36:36.709Z,100426.47
2023-05-01T09:39:25.089Z,100424.13
2023-05-01T09:42:12.259Z,100446.91
2023-05-01T09:44:57.433Z,100443.22
2023-05-01T09:47:43.293Z,100388.22
2023-05-01T09:50:31.006Z,100372.44
2023-05-01T09:53:17.032Z,100377.31
2023-05-01T09:56:02.244Z,100400.13
2023-05-01T09:58:49.809Z,100411.50
2023-05-01T10:01:43.389Z,100353.91
2023-05-01T10:04:35.256Z,100362.00
2023-05-01T10:07:21.180Z,100319.34
2023-05-01T10:10:19.945Z,100353.56
2023-05-01T10:13:16.104Z,100348.22
2023-05-01T10:16:01.195Z,100378.22
2023-05-01T10:18:47.887Z,100352.41
2023-05-01T10:21:36.072Z,100361.03
2023-05-01T10:24:22.089Z,100372.25
2023-05-01T10:27:07.447Z,100419.38
2023-05-01T10:29:53.761Z,100428.09
2023-05-01T10:32:41.794Z,100422.78
2023-05-01T10:35:31.276Z,100337.47
2023-05-01T10:38:25.739Z,100346.78
2023-05-01T10:41:11.179Z,100355.31
2023-05-01T10:44:25.902Z,100343.41
2023-05-01T10:47:46.731Z,100311.56
2023-05-01T10:50:31.724Z,100300.75
2023-05-01T10:53:16.836Z,100314.69
2023-05-01T10:56:02.749Z,100315.00
2023-05-01T10:59:00.978Z,100338.81
2023-05-01T11:01:47.779Z,100339.25
2023-05-01T11:04:46.701Z,100344.41
2023-05-01T11:07:32.154Z,100337.34
2023-05-01T11:10:27.266Z,100302.72
2023-05-01T11:13:12.576Z,100296.78
2023-05-01T11:15:57.897Z,100300.34
2023-05-01T11:18:46.436Z,100281.81
2023-05-01T11:21:34.793Z,100322.81
2023-05-01T11:24:19.933Z,100311.00
2023-05-01T11:27:06.750Z,100269.13
2023-05-01T11:29:53.614Z,100295.22
2023-05-01T11:32:43.917Z,100277.53
2023-05-01T11:35:29.447Z,100242.09
2023-05-01T11:38:17.805Z,100202.78
2023-05-01T11:41:03.908Z,100222.03
2023-05-01T11:43:50.229Z,100217.88
2023-05-01T11:46:35.718Z,100224.78
2023-05-01T11:49:29.501Z,100231.69
2023-05-01T11:52:14.498Z,100250.72
2023-05-01T11:54:59.630Z,100234.31
2023-05-01T11:57:52.448Z,100192.72
2023-05-01T12:00:42.971Z,100227.22
2023-05-01T12:03:28.760Z,100220.47
2023-05-01T12:06:14.220Z,100204.16
2023-05-01T12:09:00.608Z,100212.34
2023-05-01T12:11:52.984Z,100203.28
2023-05-01T12:14:39.972Z,100208.63
2023-05-01T12:17:25.599Z,100187.28
2023-05-01T12:20:11.078Z,100173.72
2023-05-01T12:22:56.014Z,100149.06
2023-05-01T12:25:41.797Z,100171.84
2023-05-01T12:28:27.973Z,100180.69
2023-05-01T12:31:13.006Z,100216.59
2023-05-01T12:34:00.696Z,100193.19
2023-05-01T12:36:53.521Z,100171.47
2023-05-01T12:39:40.631Z,100209.88
2023-05-01T12:42:25.493Z,100196.63
2023-05-01T12:45:10.891Z,100198.44
2023-05-01T12:47:56.183Z,100179.47
2023-05-01T12:50:42.043Z,100200.69
2023-05-01T12:53:28.210Z,100161.81
2023-05-01T12:56:22.261Z,100209.34
2023-05-01T12:59:07.481Z,100217.31
2023-05-01T13:02:07.849Z,100203.97
2023-05-01T13:04:53.153Z,100189.13
2023-05-01T13:07:38.615Z,100199.06
2023-05-01T13:10:30.738Z,100191.00
2023-05-01T13:13:27.181Z,100189.41
2023-05-01T13:16:14.275Z,100170.38
2023-05-01T13:18:59.792Z,100109.81
2023-05-01T13:21:49.466Z,100147.47
2023-05-01T13:24:41.987Z,100137.25
2023-05-01T13:27:27.514Z,100158.47
2023-05-01T13:30:12.833Z,100143.00
2023-05-01T13:32:58.212Z,100099.16
2023-05-01T13:35:43.310Z,100144.09
2023-05-01T13:38:29.118Z,100156.25
2023-05-01T13:41:19.915Z,100142.66
2023-05-01T13:44:06.470Z,100099.34
2023-05-01T13:46:55.176Z,100058.69
2023-05-01T13:49:41.858Z,100104.50
2023-05-01T13:52:27.179Z,100129.19
2023-05-01T13:55:13.614Z,100128.38
2023-05-01T13:58:00.995Z,100164.97
2023-05-01T14:00:45.922Z,100137.50
2023-05-01T14:03:39.729Z,100200.69
2023-05-01T14:06:25.137Z,100174.34
2023-05-01T14:09:10.801Z,100167.59
2023-05-01T14:11:56.393Z,100150.84
2023-05-01T14:14:47.184Z,100135.25
2023-05-01T14:17:33.952Z,100167.03
2023-05-01T14:20:19.547Z,100185.75
2023-05-01T14:23:05.825Z,100172.13
2023-05-01T14:25:51.322Z,100147.88
2023-05-01T14:28:44.117Z,100177.78
2023-05-01T14:31:30.652Z,100151.47
2023-05-01T14:34:18.376Z,100092.66
2023-05-01T14:37:04.812Z,100100.03
2023-05-01T14:39:49.761Z,100095.72
2023-05-01T14:42:34.777Z,100133.81
2023-05-01T14:45:19.817Z,100054.84
2023-05-01T14:48:05.371Z,100125.91
2023-05-01T14:50:51.369Z,100108.72
2023-05-01T14:53:36.520Z,100130.28
2023-05-01T14:56:21.475Z,100116.88
2023-05-01T14:59:06.978Z,100137.88
2023-05-01T15:01:52.253Z,100150.34
2023-05-01T15:04:37.686Z,100132.94
2023-05-01T15:07:23.177Z,100151.28
2023-05-01T15:10:08.988Z,100167.44
2023-05-01T15:12:54.213Z,100174.06
2023-05-01T15:15:39.379Z,100189.88
2023-05-01T15:18:24.187Z,100200.44
2023-05-01T15:21:09.097Z,100198.53
2023-05-01T15:23:53.942Z,100191.31
2023-05-01T15:26:39.050Z,100158.91
2023-05-01T15:29:24.306Z,100172.34
2023-05-01T15:32:12.303Z,100113.81
2023-05-01T15:34:58.098Z,100102.91
2023-05-01T15:37:43.284Z,100086.09
2023-05-01T15:40:28.055Z,100046.31
2023-05-01T15:43:13.177Z,100042.63
2023-05-01T15:45:58.154Z,100071.81
2023-05-01T15:48:43.499Z,100068.06
2023-05-01T15:51:28.349Z,100073.44
2023-05-01T15:54:13.264Z,100085.69
2023-05-01T15:56:58.314Z,100098.28
2023-05-01T15:59:43.919Z,100058.19
2023-05-01T16:02:31.464Z,100093.16
2023-05-01T16:05:19.222Z,100122.91
2023-05-01T16:08:05.715Z,100128.84
2023-05-01T16:10:50.956Z,100133.00
2023-05-01T16:13:39.881Z,100168.72
2023-05-01T16:16:26.590Z,100189.88
2023-05-01T16:19:15.831Z,100192.81
2023-05-01T16:22:03.319Z,100208.88
2023-05-01T16:24:49.173Z,100222.94
2023-05-01T16:27:34.615Z,100220.03
2023-05-01T16:30:20.530Z,100229.47
2023-05-01T16:33:08.523Z,100252.06
2023-05-01T16:35:54.091Z,100256.63
2023-05-01T16:38:39.242Z,100266.91
2023-05-01T16:41:24.041Z,100275.81
2023-05-01T16:44:09.051Z,100282.94
2023-05-01T16:46:55.906Z,100301.25
2023-05-01T16:49:41.476Z,100301.63
2023-05-01T16:52:26.869Z,100292.59
2023-05-01T16:55:12.010Z,100312.03
2023-05-01T16:57:57.294Z,100313.09
2023-05-01T17:00:44.071Z,100333.28
2023-05-01T17:03:29.610Z,100335.88
2023-05-01T17:06:14.430Z,100352.84
2023-05-01T17:08:59.763Z,100337.00
2023-05-01T17:11:44.642Z,100333.88
2023-05-01T17:14:29.484Z,100332.50
2023-05-01T17:17:15.499Z,100355.47
2023-05-01T17:20:00.733Z,100374.56
2023-05-01T17:22:46.493Z,100378.78
2023-05-01T17:25:31.747Z,100383.25
2023-05-01T17:28:16.633Z,100379.56
2023-05-01T17:31:01.502Z,100371.84
2023-05-01T17:33:46.450Z,100381.75
2023-05-01T17:36:31.922Z,100401.81
2023-05-01T17:39:20.354Z,100407.44
2023-05-01T17:42:05.742Z,100420.06
2023-05-01T17:44:50.687Z,100426.22
2023-05-01T17:47:36.318Z,100441.13
2023-05-01T17:50:21.585Z,100445.69
2023-05-01T17:53:06.824Z,100491.31
2023-05-01T17:55:52.151Z,100513.41
2023-05-01T17:58:37.816Z,100567.13
2023-05-01T18:01:22.941Z,100592.25
2023-05-01T18:04:08.565Z,100597.72
2023-05-01T18:06:53.984Z,100612.66
2023-05-01T18:09:39.213Z,100621.44
2023-05-01T18:12:24.777Z,100621.50
2023-05-01T18:15:10.367Z,100641.44
2023-05-01T18:17:55.821Z,100651.91
2023-05-01T18:20:41.073Z,100660.56
2023-05-01T18:23:26.555Z,100651.91
2023-05-01T18:26:11.945Z,100631.91
2023-05-01T18:28:56.810Z,100643.25
2023-05-01T18:31:42.417Z,100651.91
2023-05-01T18:34:27.596Z,100683.19
2023-05-01T18:37:12.648Z,100691.03
2023-05-01T18:39:58.067Z,100692.78
2023-05-01T18:42:43.387Z,100713.66
2023-05-01T18:45:28.289Z,100709.31
2023-05-01T18:48:13.713Z,100709.31
2023-05-01T18:51:08.281Z,100713.69
2023-05-01T18:53:54.277Z,100714.56
2023-05-01T18:56:39.537Z,100719.78
2023-05-01T18:59:24.246Z,100730.19
2023-05-01T19:02:09.248Z,100725.84
2023-05-01T19:04:57.825Z,100738.88
2023-05-01T19:07:43.656Z,100744.94
2023-05-01T19:10:28.605Z,100741.47
2023-05-01T19:13:13.694Z,100757.09
2023-05-01T19:15:59.211Z,100752.69
2023-05-01T19:18:45.780Z,100758.72
2023-05-01T19:21:32.259Z,100773.44
2023-05-01T19:24:17.217Z,100764.81
2023-05-01T19:27:02.580Z,100774.34
2023-05-01T19:29:47.722Z,100791.72
2023-05-01T19:32:32.997Z,100780.41
2023-05-01T19:35:18.279Z,100783.03
2023-05-01T19:38:03.742Z,100770.78
2023-05-01T19:40:49.138Z,100798.16
2023-05-01T19:43:34.627Z,100814.66
2023-05-01T19:46:19.972Z,100817.19
2023-05-01T19:49:05.366Z,100812.00
2023-05-01T19:51:50.198Z,100818.06
2023-05-01T19:54:35.554Z,100822.44
2023-05-01T19:57:21.039Z,100810.38
2023-05-01T20:00:07.435Z,100804.16
2023-05-01T20:02:52.793Z,100805.00
2023-05-01T20:05:38.020Z,100809.38
2023-05-01T20:08:22.926Z,100810.25
2023-05-01T20:11:08.296Z,100804.25
2023-05-01T20:13:53.673Z,100799.94
2023-05-01T20:16:39.178Z,100790.44
2023-05-01T20:19:24.497Z,100789.56
2023-05-01T20:22:09.580Z,100793.00
2023-05-01T20:24:54.542Z,100793.88
2023-05-01T20:27:40.489Z,100794.63
2023-05-01T20:30:25.595Z,100800.44
2023-05-01T20:33:11.591Z,100816.41
2023-05-01T20:35:56.918Z,100834.19
2023-05-01T20:38:42.538Z,100837.84
2023-05-01T20:41:27.460Z,100839.03
2023-05-01T20:44:12.734Z,100827.66
2023-05-01T20:46:58.073Z,100831.16
2023-05-01T20:49:43.509Z,100828.59
2023-05-01T20:52:28.841Z,100834.72
2023-05-01T20:55:14.391Z,100845.13
2023-05-01T20:57:59.932Z,100853.88
2023-05-01T21:00:45.226Z,100853.81
2023-05-01T21:03:32.143Z,100862.38
2023-05-01T21:06:17.626Z,100865.16
2023-05-01T21:09:04.647Z,100853.03
2023-05-01T21:11:49.916Z,100848.00
2023-05-01T21:14:35.190Z,100849.66
2023-05-01T21:17:20.702Z,100853.19
2023-05-01T21:20:14.433Z,100854.06
2023-05-01T21:23:01.112Z,100854.66
2023-05-01T21:25:46.533Z,100863.28
2023-05-01T21:28:32.006Z,100861.63
2023-05-01T21:31:17.253Z,100865.00
2023-05-01T21:34:02.702Z,100870.00
2023-05-01T21:36:47.979Z,100873.63
2023-05-01T21:39:33.503Z,100892.78
2023-05-01T21:42:18.993Z,100890.28
2023-05-01T21:45:09.498Z,100897.13
2023-05-01T21:47:54.738Z,100882.56
2023-05-01T21:50:40.121Z,100885.78
2023-05-01T21:53:28.028Z,100879.81
2023-05-01T21:56:14.314Z,100880.75
2023-05-01T21:59:04.862Z,100895.19
2023-05-01T22:01:50.140Z,100904.75
2023-05-01T22:04:35.793Z,100912.66
2023-05-01T22:07:20.926Z,100912.97
2023-05-01T22:10:12.101Z,100920.72
2023-05-01T22:12:57.310Z,100929.31
2023-05-01T22:15:42.239Z,100935.47
2023-05-01T22:18:28.604Z,100930.41
2023-05-01T22:21:13.966Z,100928.72
2023-05-01T22:23:58.907Z,100923.59
2023-05-01T22:26:44.202Z,100914.16
2023-05-01T22:29:29.649Z,100919.47
2023-05-01T22:32:15.137Z,100906.28
2023-05-01T22:35:00.321Z,100919.13
2023-05-01T22:37:45.679Z,100924.38
2023-05-01T22:40:30.540Z,100927.09
2023-05-01T22:43:15.479Z,100925.47
2023-05-01T22:46:01.372Z,100931.34
2023-05-01T22:48:46.714Z,100939.28
2023-05-01T22:51:32.149Z,100934.19
2023-05-01T22:54:17.536Z,100936.72
2023-05-01T22:57:03.166Z,100936.50
2023-05-01T22:59:48.584Z,100939.84
2023-05-01T23:02:33.849Z,100950.34
2023-05-01T23:05:18.867Z,100953.78
2023-05-01T23:08:04.505Z,100945.78
2023-05-01T23:10:49.687Z,100956.25
2023-05-01T23:13:35.185Z,100956.97
2023-05-01T23:16:20.485Z,100968.41
2023-05-01T23:19:06.491Z,100961.19
2023-05-01T23:22:09.212Z,100970.81
2023-05-01T23:24:54.634Z,100976.91
2023-05-01T23:27:52.455Z,100975.09
2023-05-01T23:30:40.181Z,100977.78
2023-05-01T23:33:27.092Z,100976.94
2023-05-01T23:36:12.542Z,100969.16
2023-05-01T23:38:57.839Z,100969.13
2023-05-01T23:41:43.339Z,100980.53
2023-05-01T23:44:28.481Z,100985.56
2023-05-01T23:47:13.325Z,100984.00
2023-05-01T23:49:59.155Z,100984.03
2023-05-01T23:52:44.747Z,100984.06
2023-05-01T23:55:30.226Z,100989.34
2023-05-01T23:58:15.533Z,100985.56
